sensor_id;sensor_type;location;lat;lon;timestamp;pressure;altitude;pressure_sealevel;temperature;humidity
36932;BME280;22847;42.654;23.370;2023-02-13T00:00:16;96420.72;;;3.48;64.88
36932;BME280;22847;42.654;23.370;2023-02-13T00:02:42;96349.50;;;3.24;64.53
36932;BME280;22847;42.654;23.370;2023-02-13T00:05:07;96377.94;;;3.42;64.32
36932;BME280;22847;42.654;23.370;2023-02-13T00:07:32;96087.88;;;1.63;64.67
36932;BME280;22847;42.654;23.370;2023-02-13T00:09:58;96399.50;;;3.41;65.29
36932;BME280;22847;42.654;23.370;2023-02-13T00:12:24;96412.56;;;3.37;65.32
36932;BME280;22847;42.654;23.370;2023-02-13T00:14:49;96402.69;;;3.25;65.96
36932;BME280;22847;42.654;23.370;2023-02-13T00:17:14;96238.41;;;2.43;65.70
36932;BME280;22847;42.654;23.370;2023-02-13T00:19:40;96407.91;;;3.46;65.58
36932;BME280;22847;42.654;23.370;2023-02-13T00:22:05;96414.22;;;3.38;65.43
36932;BME280;22847;42.654;23.370;2023-02-13T00:24:31;96453.00;;;3.58;64.89
36932;BME280;22847;42.654;23.370;2023-02-13T00:26:56;96411.00;;;3.54;65.25
36932;BME280;22847;42.654;23.370;2023-02-13T00:29:21;96409.44;;;3.50;65.14
36932;BME280;22847;42.654;23.370;2023-02-13T00:31:47;96233.88;;;2.48;65.27
36932;BME280;22847;42.654;23.370;2023-02-13T00:34:12;96323.81;;;2.99;65.84
36932;BME280;22847;42.654;23.370;2023-02-13T00:36:38;96385.31;;;3.30;66.20
36932;BME280;22847;42.654;23.370;2023-02-13T00:39:03;96452.16;;;3.57;66.48
36932;BME280;22847;42.654;23.370;2023-02-13T00:41:29;96413.47;;;3.57;66.99
36932;BME280;22847;42.654;23.370;2023-02-13T00:43:54;96441.00;;;3.57;65.97
36932;BME280;22847;42.654;23.370;2023-02-13T00:46:20;96416.66;;;3.64;65.19
36932;BME280;22847;42.654;23.370;2023-02-13T00:48:46;96420.88;;;3.65;64.73
36932;BME280;22847;42.654;23.370;2023-02-13T00:51:11;96420.28;;;3.37;65.90
36932;BME280;22847;42.654;23.370;2023-02-13T00:53:37;96456.47;;;3.57;65.28
36932;BME280;22847;42.654;23.370;2023-02-13T00:56:04;96363.25;;;3.23;65.38
36932;BME280;22847;42.654;23.370;2023-02-13T00:58:30;96424.84;;;3.52;64.79
36932;BME280;22847;42.654;23.370;2023-02-13T01:00:55;96428.97;;;3.56;64.48
36932;BME280;22847;42.654;23.370;2023-02-13T01:03:21;96378.78;;;3.21;64.37
36932;BME280;22847;42.654;23.370;2023-02-13T01:05:47;96427.06;;;3.61;64.67
36932;BME280;22847;42.654;23.370;2023-02-13T01:08:15;96417.19;;;3.50;64.89
36932;BME280;22847;42.654;23.370;2023-02-13T01:10:42;96378.59;;;3.26;64.74
36932;BME280;22847;42.654;23.370;2023-02-13T01:13:09;96414.25;;;3.59;64.44
36932;BME280;22847;42.654;23.370;2023-02-13T01:15:35;96408.53;;;3.51;64.75
36932;BME280;22847;42.654;23.370;2023-02-13T01:18:00;96225.63;;;2.40;64.42
36932;BME280;22847;42.654;23.370;2023-02-13T01:20:27;96401.16;;;3.42;64.40
36932;BME280;22847;42.654;23.370;2023-02-13T01:22:52;96422.41;;;3.49;64.53
36932;BME280;22847;42.654;23.370;2023-02-13T01:25:18;96426.72;;;3.48;64.58
36932;BME280;22847;42.654;23.370;2023-02-13T01:27:43;96436.31;;;3.45;64.27
36932;BME280;22847;42.654;23.370;2023-02-13T01:30:13;96427.44;;;3.52;64.80
36932;BME280;22847;42.654;23.370;2023-02-13T01:32:39;96404.16;;;3.32;65.11
36932;BME280;22847;42.654;23.370;2023-02-13T01:35:06;96416.44;;;3.47;64.97
36932;BME280;22847;42.654;23.370;2023-02-13T01:37:32;96413.44;;;3.36;64.71
36932;BME280;22847;42.654;23.370;2023-02-13T01:39:57;96417.59;;;3.40;64.78
36932;BME280;22847;42.654;23.370;2023-02-13T01:42:28;96426.00;;;3.45;64.65
36932;BME280;22847;42.654;23.370;2023-02-13T01:44:56;96182.69;;;1.95;64.66
36932;BME280;22847;42.654;23.370;2023-02-13T01:50:35;96440.13;;;3.35;65.48
36932;BME280;22847;42.654;23.370;2023-02-13T01:55:35;96440.28;;;3.53;64.91
36932;BME280;22847;42.654;23.370;2023-02-13T01:58:06;96395.63;;;3.30;64.96
36932;BME280;22847;42.654;23.370;2023-02-13T02:00:33;96215.66;;;2.07;65.13
36932;BME280;22847;42.654;23.370;2023-02-13T02:03:05;96439.47;;;3.51;65.61
36932;BME280;22847;42.654;23.370;2023-02-13T02:05:33;96229.22;;;2.36;64.72
36932;BME280;22847;42.654;23.370;2023-02-13T02:08:01;96446.97;;;3.36;64.78
36932;BME280;22847;42.654;23.370;2023-02-13T02:10:28;96398.28;;;3.28;64.32
36932;BME280;22847;42.654;23.370;2023-02-13T02:13:10;96472.06;;;3.54;64.66
36932;BME280;22847;42.654;23.370;2023-02-13T02:15:36;96467.56;;;3.59;64.50
36932;BME280;22847;42.654;23.370;2023-02-13T02:18:05;96477.41;;;3.49;65.04
36932;BME280;22847;42.654;23.370;2023-02-13T02:24:16;96438.41;;;3.57;65.47
36932;BME280;22847;42.654;23.370;2023-02-13T02:26:49;96429.59;;;3.63;64.70
36932;BME280;22847;42.654;23.370;2023-02-13T02:35:36;96434.63;;;3.66;64.89
36932;BME280;22847;42.654;23.370;2023-02-13T02:43:52;96495.47;;;3.71;65.23
36932;BME280;22847;42.654;23.370;2023-02-13T02:46:35;96428.22;;;3.54;65.29
36932;BME280;22847;42.654;23.370;2023-02-13T02:49:10;96346.69;;;3.06;65.29
36932;BME280;22847;42.654;23.370;2023-02-13T02:52:05;96269.84;;;2.51;65.60
36932;BME280;22847;42.654;23.370;2023-02-13T02:54:39;96452.50;;;3.70;65.58
36932;BME280;22847;42.654;23.370;2023-02-13T02:57:30;96498.53;;;3.59;66.15
36932;BME280;22847;42.654;23.370;2023-02-13T03:00:17;96490.78;;;3.59;66.94
36932;BME280;22847;42.654;23.370;2023-02-13T03:03:04;96482.53;;;3.73;66.91
36932;BME280;22847;42.654;23.370;2023-02-13T03:05:50;96466.69;;;3.82;66.78
36932;BME280;22847;42.654;23.370;2023-02-13T03:08:35;96459.28;;;3.51;66.96
36932;BME280;22847;42.654;23.370;2023-02-13T03:11:20;96457.56;;;3.73;67.45
36932;BME280;22847;42.654;23.370;2023-02-13T03:14:06;96409.38;;;3.52;67.00
36932;BME280;22847;42.654;23.370;2023-02-13T03:16:33;96246.72;;;2.71;66.37
36932;BME280;22847;42.654;23.370;2023-02-13T03:23:06;96468.38;;;4.04;66.16
36932;BME280;22847;42.654;23.370;2023-02-13T03:25:54;96370.81;;;3.49;66.12
36932;BME280;22847;42.654;23.370;2023-02-13T03:31:31;96466.19;;;4.16;65.41
36932;BME280;22847;42.654;23.370;2023-02-13T03:34:03;96457.75;;;3.90;65.48
36932;BME280;22847;42.654;23.370;2023-02-13T03:36:48;96432.91;;;3.66;65.58
36932;BME280;22847;42.654;23.370;2023-02-13T03:39:43;96392.28;;;3.49;65.90
36932;BME280;22847;42.654;23.370;2023-02-13T03:42:18;96304.16;;;2.96;65.39
36932;BME280;22847;42.654;23.370;2023-02-13T03:44:54;96467.41;;;3.85;65.35
36932;BME280;22847;42.654;23.370;2023-02-13T03:47:41;96495.84;;;4.05;65.30
36932;BME280;22847;42.654;23.370;2023-02-13T03:50:09;96409.56;;;3.69;65.40
36932;BME280;22847;42.654;23.370;2023-02-13T03:55:27;96420.31;;;3.80;64.98
36932;BME280;22847;42.654;23.370;2023-02-13T03:58:17;96467.28;;;3.88;65.99
36932;BME280;22847;42.654;23.370;2023-02-13T04:01:05;96461.00;;;4.16;64.76
36932;BME280;22847;42.654;23.370;2023-02-13T04:03:36;96459.09;;;4.21;64.46
36932;BME280;22847;42.654;23.370;2023-02-13T04:06:14;96464.69;;;4.10;64.86
36932;BME280;22847;42.654;23.370;2023-02-13T04:08:40;96436.31;;;3.88;65.30
36932;BME280;22847;42.654;23.370;2023-02-13T04:11:34;96509.31;;;4.14;65.17
36932;BME280;22847;42.654;23.370;2023-02-13T04:14:02;96469.69;;;3.71;66.66
36932;BME280;22847;42.654;23.370;2023-02-13T04:16:45;96466.16;;;3.95;66.23
36932;BME280;22847;42.654;23.370;2023-02-13T04:19:12;96257.69;;;2.76;65.96
36932;BME280;22847;42.654;23.370;2023-02-13T04:21:39;96437.09;;;3.90;65.31
36932;BME280;22847;42.654;23.370;2023-02-13T04:24:05;96429.47;;;3.87;64.94
36932;BME280;22847;42.654;23.370;2023-02-13T04:26:37;96453.66;;;3.85;65.20
36932;BME280;22847;42.654;23.370;2023-02-13T04:29:03;96261.34;;;2.70;65.45
36932;BME280;22847;42.654;23.370;2023-02-13T04:31:29;96464.28;;;3.77;65.38
36932;BME280;22847;42.654;23.370;2023-02-13T04:33:55;96489.28;;;3.97;65.02
36932;BME280;22847;42.654;23.370;2023-02-13T04:36:20;96483.38;;;3.95;65.63
36932;BME280;22847;42.654;23.370;2023-02-13T04:38:46;96468.38;;;4.04;65.37
36932;BME280;22847;42.654;23.370;2023-02-13T04:41:11;96238.25;;;2.69;65.40
36932;BME280;22847;42.654;23.370;2023-02-13T04:43:37;96365.06;;;3.21;64.81
36932;BME280;22847;42.654;23.370;2023-02-13T04:46:02;96459.31;;;4.15;64.57
36932;BME280;22847;42.654;23.370;2023-02-13T04:48:28;96497.09;;;4.17;64.17
36932;BME280;22847;42.654;23.370;2023-02-13T04:50:53;96348.50;;;3.48;63.94
36932;BME280;22847;42.654;23.370;2023-02-13T04:53:19;96460.34;;;4.11;63.88
36932;BME280;22847;42.654;23.370;2023-02-13T04:55:44;96222.06;;;2.65;63.77
36932;BME280;22847;42.654;23.370;2023-02-13T04:58:10;96480.13;;;4.12;63.97
36932;BME280;22847;42.654;23.370;2023-02-13T05:00:35;96235.75;;;2.66;63.86
36932;BME280;22847;42.654;23.370;2023-02-13T05:03:06;96310.63;;;3.06;63.87
36932;BME280;22847;42.654;23.370;2023-02-13T05:05:32;96519.81;;;4.09;64.00
36932;BME280;22847;42.654;23.370;2023-02-13T05:07:57;96490.66;;;4.05;63.96
36932;BME280;22847;42.654;23.370;2023-02-13T05:10:23;96460.50;;;3.86;63.77
36932;BME280;22847;42.654;23.370;2023-02-13T05:12:48;96453.31;;;3.72;64.24
36932;BME280;22847;42.654;23.370;2023-02-13T05:15:14;96491.97;;;3.95;64.06
36932;BME280;22847;42.654;23.370;2023-02-13T05:17:42;96427.56;;;3.49;63.58
36932;BME280;22847;42.654;23.370;2023-02-13T05:20:08;96471.31;;;3.95;63.26
36932;BME280;22847;42.654;23.370;2023-02-13T05:22:33;96502.44;;;3.69;64.50
36932;BME280;22847;42.654;23.370;2023-02-13T05:25:17;96511.41;;;3.59;64.88
36932;BME280;22847;42.654;23.370;2023-02-13T05:27:43;96507.66;;;3.44;65.13
36932;BME280;22847;42.654;23.370;2023-02-13T05:30:09;96480.94;;;3.24;65.93
36932;BME280;22847;42.654;23.370;2023-02-13T05:32:34;96337.69;;;2.48;65.26
36932;BME280;22847;42.654;23.370;2023-02-13T05:34:59;96496.69;;;3.39;65.21
36932;BME280;22847;42.654;23.370;2023-02-13T05:37:25;96468.78;;;3.27;65.71
36932;BME280;22847;42.654;23.370;2023-02-13T05:39:50;96553.75;;;3.53;65.24
36932;BME280;22847;42.654;23.370;2023-02-13T05:42:16;96511.16;;;3.65;64.92
36932;BME280;22847;42.654;23.370;2023-02-13T05:44:41;96284.94;;;2.37;64.52
36932;BME280;22847;42.654;23.370;2023-02-13T05:47:06;96450.31;;;3.38;63.94
36932;BME280;22847;42.654;23.370;2023-02-13T05:49:32;96482.28;;;3.10;64.62
36932;BME280;22847;42.654;23.370;2023-02-13T05:51:57;96493.19;;;3.17;64.60
36932;BME280;22847;42.654;23.370;2023-02-13T05:54:22;96532.91;;;3.36;65.33
36932;BME280;22847;42.654;23.370;2023-02-13T05:56:48;96537.97;;;3.38;65.12
36932;BME280;22847;42.654;23.370;2023-02-13T05:59:13;96327.19;;;2.31;64.59
36932;BME280;22847;42.654;23.370;2023-02-13T06:01:39;96562.50;;;3.25;65.40
36932;BME280;22847;42.654;23.370;2023-02-13T06:04:04;96549.03;;;3.18;65.42
36932;BME280;22847;42.654;23.370;2023-02-13T06:06:29;96532.34;;;3.28;65.48
36932;BME280;22847;42.654;23.370;2023-02-13T06:08:55;96542.19;;;3.17;64.64
36932;BME280;22847;42.654;23.370;2023-02-13T06:11:20;96500.34;;;3.10;65.35
36932;BME280;22847;42.654;23.370;2023-02-13T06:13:46;96478.19;;;3.05;64.93
36932;BME280;22847;42.654;23.370;2023-02-13T06:16:11;96539.91;;;3.33;64.70
36932;BME280;22847;42.654;23.370;2023-02-13T06:18:37;96482.28;;;3.10;64.75
36932;BME280;22847;42.654;23.370;2023-02-13T06:21:03;96517.94;;;3.23;64.08
36932;BME280;22847;42.654;23.370;2023-02-13T06:23:30;96494.16;;;3.38;63.93
36932;BME280;22847;42.654;23.370;2023-02-13T06:25:55;96537.63;;;3.47;63.49
36932;BME280;22847;42.654;23.370;2023-02-13T06:28:21;96522.06;;;3.73;63.27
36932;BME280;22847;42.654;23.370;2023-02-13T06:30:47;96540.91;;;3.97;63.06
36932;BME280;22847;42.654;23.370;2023-02-13T06:33:13;96538.16;;;4.01;62.92
36932;BME280;22847;42.654;23.370;2023-02-13T06:35:38;96499.91;;;3.68;62.95
36932;BME280;22847;42.654;23.370;2023-02-13T06:38:04;96552.63;;;4.05;62.85
36932;BME280;22847;42.654;23.370;2023-02-13T06:40:29;96535.94;;;3.92;62.11
36932;BME280;22847;42.654;23.370;2023-02-13T06:42:54;96272.59;;;2.46;61.53
36932;BME280;22847;42.654;23.370;2023-02-13T06:45:20;96537.84;;;3.87;61.68
36932;BME280;22847;42.654;23.370;2023-02-13T06:47:47;96306.44;;;2.59;62.02
36932;BME280;22847;42.654;23.370;2023-02-13T06:50:14;96539.66;;;4.07;61.94
36932;BME280;22847;42.654;23.370;2023-02-13T06:52:49;96560.00;;;3.93;62.47
36932;BME280;22847;42.654;23.370;2023-02-13T06:55:15;96140.13;;;1.63;62.53
36932;BME280;22847;42.654;23.370;2023-02-13T06:57:43;96572.69;;;4.21;62.15
36932;BME280;22847;42.654;23.370;2023-02-13T07:00:09;96557.06;;;4.24;61.63
36932;BME280;22847;42.654;23.370;2023-02-13T07:02:38;96364.19;;;3.20;61.80
36932;BME280;22847;42.654;23.370;2023-02-13T07:05:03;96544.22;;;4.44;61.67
36932;BME280;22847;42.654;23.370;2023-02-13T07:07:35;96517.22;;;4.31;61.41
36932;BME280;22847;42.654;23.370;2023-02-13T07:10:01;96547.47;;;4.49;61.42
36932;BME280;22847;42.654;23.370;2023-02-13T07:12:27;96531.31;;;4.22;62.19
36932;BME280;22847;42.654;23.370;2023-02-13T07:14:52;96548.59;;;4.42;62.25
36932;BME280;22847;42.654;23.370;2023-02-13T07:17:18;96581.81;;;4.51;62.17
36932;BME280;22847;42.654;23.370;2023-02-13T07:19:43;96360.63;;;3.46;61.91
36932;BME280;22847;42.654;23.370;2023-02-13T07:22:09;96478.53;;;4.29;61.66
36932;BME280;22847;42.654;23.370;2023-02-13T07:24:34;96542.88;;;4.56;61.63
36932;BME280;22847;42.654;23.370;2023-02-13T07:27:00;96494.78;;;4.53;61.46
36932;BME280;22847;42.654;23.370;2023-02-13T07:29:25;96331.63;;;3.41;61.22
36932;BME280;22847;42.654;23.370;2023-02-13T07:31:51;96268.66;;;3.25;60.42
36932;BME280;22847;42.654;23.370;2023-02-13T07:34:16;96589.47;;;4.74;61.40
36932;BME280;22847;42.654;23.370;2023-02-13T07:36:42;96560.84;;;4.79;61.27
36932;BME280;22847;42.654;23.370;2023-02-13T07:39:07;96521.34;;;4.55;61.70
36932;BME280;22847;42.654;23.370;2023-02-13T07:41:33;96548.34;;;4.90;61.23
36932;BME280;22847;42.654;23.370;2023-02-13T07:43:58;96523.84;;;4.78;61.24
36932;BME280;22847;42.654;23.370;2023-02-13T07:46:23;96549.75;;;4.77;61.59
36932;BME280;22847;42.654;23.370;2023-02-13T07:49:01;96596.28;;;4.77;61.63
36932;BME280;22847;42.654;23.370;2023-02-13T07:51:26;96549.13;;;4.72;61.89
36932;BME280;22847;42.654;23.370;2023-02-13T07:53:53;96550.31;;;4.63;62.17
36932;BME280;22847;42.654;23.370;2023-02-13T07:56:19;96414.34;;;3.78;62.18
36932;BME280;22847;42.654;23.370;2023-02-13T07:58:45;96494.50;;;4.39;62.54
36932;BME280;22847;42.654;23.370;2023-02-13T08:01:13;96544.41;;;4.81;62.00
36932;BME280;22847;42.654;23.370;2023-02-13T08:03:39;96596.72;;;4.86;60.91
36932;BME280;22847;42.654;23.370;2023-02-13T08:06:05;96548.50;;;4.65;61.61
36932;BME280;22847;42.654;23.370;2023-02-13T08:08:31;96476.50;;;4.16;62.41
36932;BME280;22847;42.654;23.370;2023-02-13T08:10:56;96300.47;;;2.57;62.14
36932;BME280;22847;42.654;23.370;2023-02-13T08:13:46;96289.75;;;3.34;61.09
36932;BME280;22847;42.654;23.370;2023-02-13T08:16:11;96523.50;;;4.45;62.04
36932;BME280;22847;42.654;23.370;2023-02-13T08:18:36;96543.72;;;4.56;62.48
36932;BME280;22847;42.654;23.370;2023-02-13T08:21:02;96290.19;;;3.24;61.75
36932;BME280;22847;42.654;23.370;2023-02-13T08:23:28;96548.19;;;4.73;62.18
36932;BME280;22847;42.654;23.370;2023-02-13T08:25:53;96529.66;;;4.63;62.33
36932;BME280;22847;42.654;23.370;2023-02-13T08:28:18;96422.19;;;3.97;62.65
36932;BME280;22847;42.654;23.370;2023-02-13T08:30:44;96545.69;;;4.91;61.79
36932;BME280;22847;42.654;23.370;2023-02-13T08:33:09;96547.50;;;4.89;61.46
36932;BME280;22847;42.654;23.370;2023-02-13T08:35:34;96549.19;;;4.90;61.56
36932;BME280;22847;42.654;23.370;2023-02-13T08:38:01;96545.94;;;5.06;61.22
36932;BME280;22847;42.654;23.370;2023-02-13T08:40:27;96497.47;;;4.70;61.07
36932;BME280;22847;42.654;23.370;2023-02-13T08:42:58;96548.66;;;5.03;61.57
36932;BME280;22847;42.654;23.370;2023-02-13T08:45:23;96551.63;;;5.14;60.63
36932;BME280;22847;42.654;23.370;2023-02-13T08:47:49;96543.38;;;4.85;61.19
36932;BME280;22847;42.654;23.370;2023-02-13T08:50:14;96300.88;;;3.56;60.53
36932;BME280;22847;42.654;23.370;2023-02-13T08:52:39;96525.66;;;4.76;61.33
36932;BME280;22847;42.654;23.370;2023-02-13T08:55:05;96551.22;;;4.82;61.45
36932;BME280;22847;42.654;23.370;2023-02-13T08:57:30;96559.84;;;5.03;61.24
36932;BME280;22847;42.654;23.370;2023-02-13T08:59:56;96490.56;;;4.71;61.18
36932;BME280;22847;42.654;23.370;2023-02-13T09:02:21;96338.06;;;3.73;61.38
36932;BME280;22847;42.654;23.370;2023-02-13T09:04:46;96312.56;;;3.65;60.87
36932;BME280;22847;42.654;23.370;2023-02-13T09:07:12;96479.41;;;4.90;60.43
36932;BME280;22847;42.654;23.370;2023-02-13T09:09:37;96549.28;;;5.28;60.42
36932;BME280;22847;42.654;23.370;2023-02-13T09:12:03;96516.25;;;5.14;59.97
36932;BME280;22847;42.654;23.370;2023-02-13T09:14:28;96458.47;;;4.76;60.00
36932;BME280;22847;42.654;23.370;2023-02-13T09:16:53;96471.75;;;4.87;60.44
36932;BME280;22847;42.654;23.370;2023-02-13T09:19:19;96556.19;;;5.48;59.79
36932;BME280;22847;42.654;23.370;2023-02-13T09:21:44;96530.66;;;5.40;59.42
36932;BME280;22847;42.654;23.370;2023-02-13T09:24:10;96360.19;;;4.39;59.33
36932;BME280;22847;42.654;23.370;2023-02-13T09:26:35;96543.53;;;5.60;59.73
36932;BME280;22847;42.654;23.370;2023-02-13T09:29:01;96513.88;;;5.49;59.83
36932;BME280;22847;42.654;23.370;2023-02-13T09:31:27;96293.56;;;4.47;59.29
36932;BME280;22847;42.654;23.370;2023-02-13T09:33:52;96290.56;;;4.56;58.17
36932;BME280;22847;42.654;23.370;2023-02-13T09:36:20;96341.56;;;4.90;57.84
36932;BME280;22847;42.654;23.370;2023-02-13T09:38:47;96498.56;;;5.81;58.23
36932;BME280;22847;42.654;23.370;2023-02-13T09:41:19;96466.53;;;5.47;58.40
36932;BME280;22847;42.654;23.370;2023-02-13T09:43:52;96544.63;;;5.94;58.50
36932;BME280;22847;42.654;23.370;2023-02-13T09:48:47;96280.66;;;4.84;57.49
36932;BME280;22847;42.654;23.370;2023-02-13T09:51:16;96443.13;;;5.85;57.10
36932;BME280;22847;42.654;23.370;2023-02-13T09:53:53;96508.34;;;6.65;57.35
36932;BME280;22847;42.654;23.370;2023-02-13T09:59:13;96510.88;;;7.01;56.67
36932;BME280;22847;42.654;23.370;2023-02-13T10:01:44;96456.72;;;6.95;57.38
36932;BME280;22847;42.654;23.370;2023-02-13T10:07:25;96506.06;;;7.11;55.48
36932;BME280;22847;42.654;23.370;2023-02-13T10:10:14;96469.13;;;7.06;54.76
36932;BME280;22847;42.654;23.370;2023-02-13T10:15:39;96469.81;;;7.42;54.86
36932;BME280;22847;42.654;23.370;2023-02-13T10:18:09;96475.84;;;7.58;54.57
36932;BME280;22847;42.654;23.370;2023-02-13T10:20:54;96419.50;;;7.12;54.37
36932;BME280;22847;42.654;23.370;2023-02-13T10:25:59;96471.31;;;7.46;53.92
36932;BME280;22847;42.654;23.370;2023-02-13T10:28:30;96461.09;;;8.06;53.22
36932;BME280;22847;42.654;23.370;2023-02-13T10:31:05;96456.91;;;8.19;52.81
36932;BME280;22847;42.654;23.370;2023-02-13T10:33:39;96443.41;;;8.28;52.42
36932;BME280;22847;42.654;23.370;2023-02-13T10:38:56;96461.19;;;8.36;50.56
36932;BME280;22847;42.654;23.370;2023-02-13T10:49:30;96419.78;;;8.77;49.99
36932;BME280;22847;42.654;23.370;2023-02-13T10:54:51;96422.59;;;9.02;50.80
36932;BME280;22847;42.654;23.370;2023-02-13T10:57:24;96420.53;;;9.35;49.17
36932;BME280;22847;42.654;23.370;2023-02-13T11:00:24;96416.06;;;9.52;48.12
36932;BME280;22847;42.654;23.370;2023-02-13T11:02:51;96399.25;;;9.29;48.05
36932;BME280;22847;42.654;23.370;2023-02-13T11:05:27;96411.97;;;9.33;47.79
36932;BME280;22847;42.654;23.370;2023-02-13T11:07:55;96204.72;;;7.78;49.28
36932;BME280;22847;42.654;23.370;2023-02-13T11:10:23;96343.25;;;8.95;48.79
36932;BME280;22847;42.654;23.370;2023-02-13T11:12:49;96273.97;;;8.37;48.16
36932;BME280;22847;42.654;23.370;2023-02-13T11:15:28;96401.00;;;9.28;47.77
36932;BME280;22847;42.654;23.370;2023-02-13T11:18:14;96388.19;;;9.39;47.72
36932;BME280;22847;42.654;23.370;2023-02-13T11:20:44;96349.38;;;9.49;47.19
36932;BME280;22847;42.654;23.370;2023-02-13T11:23:32;96376.13;;;9.65;47.83
36932;BME280;22847;42.654;23.370;2023-02-13T11:28:24;96361.91;;;9.57;46.09
36932;BME280;22847;42.654;23.370;2023-02-13T11:30:51;96324.41;;;9.32;47.32
36932;BME280;22847;42.654;23.370;2023-02-13T11:35:44;96340.03;;;9.59;46.75
36932;BME280;22847;42.654;23.370;2023-02-13T11:38:22;96316.81;;;9.56;46.48
36932;BME280;22847;42.654;23.370;2023-02-13T11:41:12;96335.97;;;9.82;45.77
36932;BME280;22847;42.654;23.370;2023-02-13T11:43:59;96122.03;;;8.56;46.68
36932;BME280;22847;42.654;23.370;2023-02-13T11:46:42;96338.56;;;9.55;45.49
36932;BME280;22847;42.654;23.370;2023-02-13T11:49:32;96327.22;;;9.56;46.31
36932;BME280;22847;42.654;23.370;2023-02-13T11:52:10;96176.47;;;8.85;45.59
36932;BME280;22847;42.654;23.370;2023-02-13T11:54:54;96301.28;;;9.81;45.23
36932;BME280;22847;42.654;23.370;2023-02-13T11:57:24;96097.38;;;8.75;45.09
36932;BME280;22847;42.654;23.370;2023-02-13T11:59:53;96237.53;;;9.60;44.81
36932;BME280;22847;42.654;23.370;2023-02-13T12:02:21;96079.38;;;8.72;45.17
36932;BME280;22847;42.654;23.370;2023-02-13T12:04:49;96116.16;;;8.93;46.21
36932;BME280;22847;42.654;23.370;2023-02-13T12:09:53;96272.44;;;10.10;44.02
36932;BME280;22847;42.654;23.370;2023-02-13T12:12:26;96313.13;;;10.12;44.44
36932;BME280;22847;42.654;23.370;2023-02-13T12:14:55;96281.00;;;10.12;44.81
36932;BME280;22847;42.654;23.370;2023-02-13T12:17:26;96075.63;;;9.16;43.88
36932;BME280;22847;42.654;23.370;2023-02-13T12:19:54;96059.00;;;9.18;45.22
36932;BME280;22847;42.654;23.370;2023-02-13T12:27:59;96070.03;;;9.22;42.39
36932;BME280;22847;42.654;23.370;2023-02-13T12:46:43;96012.03;;;9.32;41.21
36932;BME280;22847;42.654;23.370;2023-02-13T12:49:28;96137.75;;;10.10;40.89
36932;BME280;22847;42.654;23.370;2023-02-13T13:06:00;96032.75;;;9.47;39.71
36932;BME280;22847;42.654;23.370;2023-02-13T13:16:25;96228.50;;;10.43;39.48
36932;BME280;22847;42.654;23.370;2023-02-13T13:21:38;96086.84;;;9.81;40.64
36932;BME280;22847;42.654;23.370;2023-02-13T13:26:52;96156.34;;;10.18;39.55
36932;BME280;22847;42.654;23.370;2023-02-13T13:29:28;95996.84;;;9.39;39.85
36932;BME280;22847;42.654;23.370;2023-02-13T13:32:07;96208.19;;;10.72;39.34
36932;BME280;22847;42.654;23.370;2023-02-13T13:34:37;96194.72;;;10.78;39.08
36932;BME280;22847;42.654;23.370;2023-02-13T13:37:13;96166.09;;;10.53;38.99
36932;BME280;22847;42.654;23.370;2023-02-13T13:42:50;96236.91;;;10.85;38.40
36932;BME280;22847;42.654;23.370;2023-02-13T13:50:43;96124.63;;;10.24;39.78
36932;BME280;22847;42.654;23.370;2023-02-13T13:53:13;96202.78;;;10.75;39.83
36932;BME280;22847;42.654;23.370;2023-02-13T13:58:34;96188.97;;;10.86;39.54
36932;BME280;22847;42.654;23.370;2023-02-13T14:01:31;96204.78;;;10.59;39.66
36932;BME280;22847;42.654;23.370;2023-02-13T14:04:35;95989.22;;;9.23;39.99
36932;BME280;22847;42.654;23.370;2023-02-13T14:11:52;96204.91;;;10.57;39.38
36932;BME280;22847;42.654;23.370;2023-02-13T14:16:57;96192.19;;;10.53;39.79
36932;BME280;22847;42.654;23.370;2023-02-13T14:25:02;96179.84;;;10.55;39.79
36932;BME280;22847;42.654;23.370;2023-02-13T14:29:53;96129.63;;;10.15;40.15
36932;BME280;22847;42.654;23.370;2023-02-13T14:32:36;96162.47;;;10.43;39.94
36932;BME280;22847;42.654;23.370;2023-02-13T14:35:17;95974.66;;;9.33;39.93
36932;BME280;22847;42.654;23.370;2023-02-13T14:37:53;96088.66;;;10.04;39.92
36932;BME280;22847;42.654;23.370;2023-02-13T14:42:55;96000.81;;;9.45;40.14
36932;BME280;22847;42.654;23.370;2023-02-13T14:45:26;96167.59;;;10.44;40.46
36932;BME280;22847;42.654;23.370;2023-02-13T14:47:54;95964.66;;;9.15;40.46
36932;BME280;22847;42.654;23.370;2023-02-13T14:50:40;96164.78;;;10.35;40.44
36932;BME280;22847;42.654;23.370;2023-02-13T14:53:27;96171.44;;;10.39;40.55
36932;BME280;22847;42.654;23.370;2023-02-13T14:56:04;96026.63;;;9.48;40.66
36932;BME280;22847;42.654;23.370;2023-02-13T14:58:31;95930.00;;;8.89;40.55
36932;BME280;22847;42.654;23.370;2023-02-13T15:01:04;96162.28;;;10.33;40.75
36932;BME280;22847;42.654;23.370;2023-02-13T15:03:36;96165.94;;;10.31;41.13
36932;BME280;22847;42.654;23.370;2023-02-13T15:06:12;96147.97;;;10.01;40.91
36932;BME280;22847;42.654;23.370;2023-02-13T15:08:47;96195.09;;;9.98;41.27
36932;BME280;22847;42.654;23.370;2023-02-13T15:11:31;96170.09;;;10.08;41.24
36932;BME280;22847;42.654;23.370;2023-02-13T15:14:23;96156.41;;;10.04;41.07
36932;BME280;22847;42.654;23.370;2023-02-13T15:17:17;96166.03;;;10.04;41.18
36932;BME280;22847;42.654;23.370;2023-02-13T15:19:46;96164.84;;;9.95;41.27
36932;BME280;22847;42.654;23.370;2023-02-13T15:22:39;96174.66;;;9.79;41.62
36932;BME280;22847;42.654;23.370;2023-02-13T15:25:22;96188.28;;;9.70;41.56
36932;BME280;22847;42.654;23.370;2023-02-13T15:27:51;96177.16;;;9.68;41.93
36932;BME280;22847;42.654;23.370;2023-02-13T15:30:31;96143.91;;;9.19;42.47
36932;BME280;22847;42.654;23.370;2023-02-13T15:32:59;96203.59;;;9.22;42.69
36932;BME280;22847;42.654;23.370;2023-02-13T15:35:33;96139.91;;;8.74;42.95
36932;BME280;22847;42.654;23.370;2023-02-13T15:38:39;96177.00;;;9.05;43.17
36932;BME280;22847;42.654;23.370;2023-02-13T15:41:15;96177.72;;;9.07;43.12